sensor_id;sensor_type;location;lat;lon;timestamp;temperature;humidity
26575;DHT22;67165;50.256;10.978;2023-06-22T00:02:13;19.00;98.00
26575;DHT22;67165;50.256;10.978;2023-06-22T00:04:39;19.00;98.00
26575;DHT22;67165;50.256;10.978;2023-06-22T00:07:05;19.00;98.00
26575;DHT22;67165;50.256;10.978;2023-06-22T00:09:31;19.00;98.00
26575;DHT22;67165;50.256;10.978;2023-06-22T00:11:57;19.00;98.00
26575;DHT22;67165;50.256;10.978;2023-06-22T00:14:23;18.90;98.00
26575;DHT22;67165;50.256;10.978;2023-06-22T00:16:48;18.90;98.00
26575;DHT22;67165;50.256;10.978;2023-06-22T00:19:15;18.90;98.00
26575;DHT22;67165;50.256;10.978;2023-06-22T00:21:41;18.90;98.00
26575;DHT22;67165;50.256;10.978;2023-06-22T00:24:08;18.90;98.00
26575;DHT22;67165;50.256;10.978;2023-06-22T00:26:34;18.80;98.00
26575;DHT22;67165;50.256;10.978;2023-06-22T00:28:59;18.80;98.00
26575;DHT22;67165;50.256;10.978;2023-06-22T00:31:25;18.80;98.00
26575;DHT22;67165;50.256;10.978;2023-06-22T00:33:51;18.80;98.00
26575;DHT22;67165;50.256;10.978;2023-06-22T00:36:16;18.80;98.00
26575;DHT22;67165;50.256;10.978;2023-06-22T00:38:43;18.70;98.00
26575;DHT22;67165;50.256;10.978;2023-06-22T00:41:09;18.70;98.00
26575;DHT22;67165;50.256;10.978;2023-06-22T00:43:35;18.70;98.00
26575;DHT22;67165;50.256;10.978;2023-06-22T00:46:00;18.70;98.00
26575;DHT22;67165;50.256;10.978;2023-06-22T00:48:26;18.70;98.00
26575;DHT22;67165;50.256;10.978;2023-06-22T00:50:52;18.70;98.00
26575;DHT22;67165;50.256;10.978;2023-06-22T00:53:21;18.70;98.00
26575;DHT22;67165;50.256;10.978;2023-06-22T00:55:47;18.70;98.00
26575;DHT22;67165;50.256;10.978;2023-06-22T00:58:13;18.70;98.00
26575;DHT22;67165;50.256;10.978;2023-06-22T01:00:40;18.70;98.00
26575;DHT22;67165;50.256;10.978;2023-06-22T01:03:06;18.70;98.00
26575;DHT22;67165;50.256;10.978;2023-06-22T01:05:35;18.70;98.00
26575;DHT22;67165;50.256;10.978;2023-06-22T01:13:44;18.60;98.00
26575;DHT22;67165;50.256;10.978;2023-06-22T01:16:28;18.60;98.00
26575;DHT22;67165;50.256;10.978;2023-06-22T01:18:57;18.60;98.00
26575;DHT22;67165;50.256;10.978;2023-06-22T01:21:25;18.60;98.00
26575;DHT22;67165;50.256;10.978;2023-06-22T01:24:20;18.60;98.00
26575;DHT22;67165;50.256;10.978;2023-06-22T01:29:23;18.60;98.00
26575;DHT22;67165;50.256;10.978;2023-06-22T01:31:50;18.60;98.00
26575;DHT22;67165;50.256;10.978;2023-06-22T01:34:17;18.60;98.00
26575;DHT22;67165;50.256;10.978;2023-06-22T01:36:43;18.60;98.00
26575;DHT22;67165;50.256;10.978;2023-06-22T01:39:09;18.70;98.00
26575;DHT22;67165;50.256;10.978;2023-06-22T01:41:38;18.60;98.00
26575;DHT22;67165;50.256;10.978;2023-06-22T01:44:07;18.60;98.00
26575;DHT22;67165;50.256;10.978;2023-06-22T01:46:36;18.60;98.00
26575;DHT22;67165;50.256;10.978;2023-06-22T01:49:02;18.60;98.00
26575;DHT22;67165;50.256;10.978;2023-06-22T01:51:29;18.60;98.00
26575;DHT22;67165;50.256;10.978;2023-06-22T01:53:55;18.50;98.00
26575;DHT22;67165;50.256;10.978;2023-06-22T01:56:21;18.50;98.00
26575;DHT22;67165;50.256;10.978;2023-06-22T02:01:31;18.40;98.00
26575;DHT22;67165;50.256;10.978;2023-06-22T02:04:18;18.40;98.00
26575;DHT22;67165;50.256;10.978;2023-06-22T02:06:46;18.40;98.00
26575;DHT22;67165;50.256;10.978;2023-06-22T02:09:16;18.30;98.00
26575;DHT22;67165;50.256;10.978;2023-06-22T02:11:45;18.30;98.00
26575;DHT22;67165;50.256;10.978;2023-06-22T02:14:13;18.30;98.00
26575;DHT22;67165;50.256;10.978;2023-06-22T02:16:40;18.30;98.00
26575;DHT22;67165;50.256;10.978;2023-06-22T02:19:07;18.30;98.00
26575;DHT22;67165;50.256;10.978;2023-06-22T02:21:34;18.30;98.00
26575;DHT22;67165;50.256;10.978;2023-06-22T02:23:59;18.30;98.00
26575;DHT22;67165;50.256;10.978;2023-06-22T02:26:26;18.30;98.00
26575;DHT22;67165;50.256;10.978;2023-06-22T02:28:52;18.40;98.00
26575;DHT22;67165;50.256;10.978;2023-06-22T02:31:18;18.40;98.00
26575;DHT22;67165;50.256;10.978;2023-06-22T02:33:45;18.30;98.00
26575;DHT22;67165;50.256;10.978;2023-06-22T02:36:11;18.30;98.00
26575;DHT22;67165;50.256;10.978;2023-06-22T02:38:41;18.40;98.00
26575;DHT22;67165;50.256;10.978;2023-06-22T02:41:14;18.40;98.00
26575;DHT22;67165;50.256;10.978;2023-06-22T02:43:46;18.40;98.00
26575;DHT22;67165;50.256;10.978;2023-06-22T02:46:12;18.40;98.00
26575;DHT22;67165;50.256;10.978;2023-06-22T02:48:39;18.40;98.00
26575;DHT22;67165;50.256;10.978;2023-06-22T02:51:05;18.50;98.00
26575;DHT22;67165;50.256;10.978;2023-06-22T02:53:32;18.50;98.00
26575;DHT22;67165;50.256;10.978;2023-06-22T02:55:57;18.50;98.00
26575;DHT22;67165;50.256;10.978;2023-06-22T02:58:23;18.60;98.00
26575;DHT22;67165;50.256;10.978;2023-06-22T03:00:49;18.60;98.00
26575;DHT22;67165;50.256;10.978;2023-06-22T03:03:18;18.60;98.00
26575;DHT22;67165;50.256;10.978;2023-06-22T03:05:44;18.60;98.00
26575;DHT22;67165;50.256;10.978;2023-06-22T03:08:10;18.60;98.00
26575;DHT22;67165;50.256;10.978;2023-06-22T03:10:36;18.70;98.00
26575;DHT22;67165;50.256;10.978;2023-06-22T03:13:02;18.80;98.00
26575;DHT22;67165;50.256;10.978;2023-06-22T03:15:28;18.80;98.00
26575;DHT22;67165;50.256;10.978;2023-06-22T03:17:58;18.80;98.00
26575;DHT22;67165;50.256;10.978;2023-06-22T03:20:24;18.80;98.00
26575;DHT22;67165;50.256;10.978;2023-06-22T03:22:50;18.80;98.00
26575;DHT22;67165;50.256;10.978;2023-06-22T03:25:16;18.80;98.00
26575;DHT22;67165;50.256;10.978;2023-06-22T03:27:42;18.80;98.00
26575;DHT22;67165;50.256;10.978;2023-06-22T03:30:11;18.80;98.00
26575;DHT22;67165;50.256;10.978;2023-06-22T03:32:36;18.80;98.00
26575;DHT22;67165;50.256;10.978;2023-06-22T03:35:02;18.80;98.00
26575;DHT22;67165;50.256;10.978;2023-06-22T03:37:28;18.80;98.00
26575;DHT22;67165;50.256;10.978;2023-06-22T03:39:54;18.80;98.00
26575;DHT22;67165;50.256;10.978;2023-06-22T03:42:20;18.80;98.00
26575;DHT22;67165;50.256;10.978;2023-06-22T03:44:46;18.80;98.00
26575;DHT22;67165;50.256;10.978;2023-06-22T03:47:12;18.80;98.00
26575;DHT22;67165;50.256;10.978;2023-06-22T03:49:38;18.90;98.00
26575;DHT22;67165;50.256;10.978;2023-06-22T03:52:04;18.90;98.00
26575;DHT22;67165;50.256;10.978;2023-06-22T03:54:31;18.80;98.00
26575;DHT22;67165;50.256;10.978;2023-06-22T03:56:57;18.70;98.00
26575;DHT22;67165;50.256;10.978;2023-06-22T03:59:23;18.70;98.00
26575;DHT22;67165;50.256;10.978;2023-06-22T04:01:49;18.70;98.00
26575;DHT22;67165;50.256;10.978;2023-06-22T04:04:17;18.90;98.00
26575;DHT22;67165;50.256;10.978;2023-06-22T04:06:42;19.00;98.00
26575;DHT22;67165;50.256;10.978;2023-06-22T04:09:08;19.10;98.00
26575;DHT22;67165;50.256;10.978;2023-06-22T04:11:33;19.20;98.00
26575;DHT22;67165;50.256;10.978;2023-06-22T04:13:59;19.30;98.00
26575;DHT22;67165;50.256;10.978;2023-06-22T04:16:25;19.20;98.00
26575;DHT22;67165;50.256;10.978;2023-06-22T04:18:51;19.20;98.00
26575;DHT22;67165;50.256;10.978;2023-06-22T04:21:16;19.20;98.00
26575;DHT22;67165;50.256;10.978;2023-06-22T04:23:42;19.20;98.00
26575;DHT22;67165;50.256;10.978;2023-06-22T04:26:08;19.20;98.00
26575;DHT22;67165;50.256;10.978;2023-06-22T04:28:34;19.10;98.00
26575;DHT22;67165;50.256;10.978;2023-06-22T04:31:03;19.10;98.00
26575;DHT22;67165;50.256;10.978;2023-06-22T04:33:30;19.10;98.00
26575;DHT22;67165;50.256;10.978;2023-06-22T04:35:56;19.10;98.00
26575;DHT22;67165;50.256;10.978;2023-06-22T04:38:23;19.20;98.00
26575;DHT22;67165;50.256;10.978;2023-06-22T04:40:49;19.20;98.00
26575;DHT22;67165;50.256;10.978;2023-06-22T04:43:15;19.30;98.00
26575;DHT22;67165;50.256;10.978;2023-06-22T04:45:40;19.40;98.00
26575;DHT22;67165;50.256;10.978;2023-06-22T04:48:06;19.80;98.00
26575;DHT22;67165;50.256;10.978;2023-06-22T04:50:33;20.20;98.00
26575;DHT22;67165;50.256;10.978;2023-06-22T04:52:59;20.60;98.00
26575;DHT22;67165;50.256;10.978;2023-06-22T04:55:25;21.20;98.00
26575;DHT22;67165;50.256;10.978;2023-06-22T04:57:51;21.70;98.00
26575;DHT22;67165;50.256;10.978;2023-06-22T05:00:20;21.90;98.00
26575;DHT22;67165;50.256;10.978;2023-06-22T05:02:47;22.00;98.00
26575;DHT22;67165;50.256;10.978;2023-06-22T05:05:13;22.10;98.00
26575;DHT22;67165;50.256;10.978;2023-06-22T05:07:44;22.50;98.00
26575;DHT22;67165;50.256;10.978;2023-06-22T05:10:11;22.70;98.00
26575;DHT22;67165;50.256;10.978;2023-06-22T05:12:38;23.00;98.00
26575;DHT22;67165;50.256;10.978;2023-06-22T05:15:05;23.30;98.00
26575;DHT22;67165;50.256;10.978;2023-06-22T05:17:31;23.50;98.00
26575;DHT22;67165;50.256;10.978;2023-06-22T05:19:57;23.60;98.00
26575;DHT22;67165;50.256;10.978;2023-06-22T05:22:22;23.70;98.00
26575;DHT22;67165;50.256;10.978;2023-06-22T05:24:48;24.00;98.00
26575;DHT22;67165;50.256;10.978;2023-06-22T05:27:14;24.30;98.00
26575;DHT22;67165;50.256;10.978;2023-06-22T05:29:40;24.50;98.00
26575;DHT22;67165;50.256;10.978;2023-06-22T05:32:06;24.60;98.00
26575;DHT22;67165;50.256;10.978;2023-06-22T05:34:32;24.80;98.00
26575;DHT22;67165;50.256;10.978;2023-06-22T05:36:58;24.90;98.00
26575;DHT22;67165;50.256;10.978;2023-06-22T05:39:26;25.00;98.00
26575;DHT22;67165;50.256;10.978;2023-06-22T05:41:52;25.10;98.00
26575;DHT22;67165;50.256;10.978;2023-06-22T05:44:18;25.10;98.00
26575;DHT22;67165;50.256;10.978;2023-06-22T05:46:44;25.20;98.00
26575;DHT22;67165;50.256;10.978;2023-06-22T05:49:14;25.30;98.00
26575;DHT22;67165;50.256;10.978;2023-06-22T05:51:44;25.30;98.00
26575;DHT22;67165;50.256;10.978;2023-06-22T05:54:09;25.50;98.00
26575;DHT22;67165;50.256;10.978;2023-06-22T05:56:35;25.40;98.00
26575;DHT22;67165;50.256;10.978;2023-06-22T05:59:01;25.20;98.00
26575;DHT22;67165;50.256;10.978;2023-06-22T06:01:27;25.10;98.00
26575;DHT22;67165;50.256;10.978;2023-06-22T06:03:52;25.30;98.00
26575;DHT22;67165;50.256;10.978;2023-06-22T06:06:18;25.40;98.00
26575;DHT22;67165;50.256;10.978;2023-06-22T06:08:46;25.60;98.00
26575;DHT22;67165;50.256;10.978;2023-06-22T06:11:12;25.80;98.00
26575;DHT22;67165;50.256;10.978;2023-06-22T06:13:38;25.80;98.00
26575;DHT22;67165;50.256;10.978;2023-06-22T06:16:03;25.50;98.00
26575;DHT22;67165;50.256;10.978;2023-06-22T06:18:29;25.70;98.00
26575;DHT22;67165;50.256;10.978;2023-06-22T06:20:55;25.90;98.00
26575;DHT22;67165;50.256;10.978;2023-06-22T06:23:20;26.20;98.00
26575;DHT22;67165;50.256;10.978;2023-06-22T06:25:46;26.50;98.00
26575;DHT22;67165;50.256;10.978;2023-06-22T06:28:12;26.40;98.00
26575;DHT22;67165;50.256;10.978;2023-06-22T06:30:37;26.30;98.00
26575;DHT22;67165;50.256;10.978;2023-06-22T06:33:03;26.30;98.00
26575;DHT22;67165;50.256;10.978;2023-06-22T06:35:34;26.50;98.00
26575;DHT22;67165;50.256;10.978;2023-06-22T06:38:00;26.40;98.00
26575;DHT22;67165;50.256;10.978;2023-06-22T06:40:26;26.50;98.00
26575;DHT22;67165;50.256;10.978;2023-06-22T06:42:51;26.50;98.00
26575;DHT22;67165;50.256;10.978;2023-06-22T06:47:43;26.50;98.00
26575;DHT22;67165;50.256;10.978;2023-06-22T06:50:09;26.80;98.00
26575;DHT22;67165;50.256;10.978;2023-06-22T06:52:35;26.80;98.00
26575;DHT22;67165;50.256;10.978;2023-06-22T06:55:01;26.80;98.00
26575;DHT22;67165;50.256;10.978;2023-06-22T06:57:28;26.90;98.00
26575;DHT22;67165;50.256;10.978;2023-06-22T06:59:55;27.00;98.00
26575;DHT22;67165;50.256;10.978;2023-06-22T07:02:22;27.10;98.00
26575;DHT22;67165;50.256;10.978;2023-06-22T07:04:48;27.20;98.00
26575;DHT22;67165;50.256;10.978;2023-06-22T07:07:14;27.40;98.00
26575;DHT22;67165;50.256;10.978;2023-06-22T07:09:39;27.70;98.00
26575;DHT22;67165;50.256;10.978;2023-06-22T07:12:05;27.90;98.00
26575;DHT22;67165;50.256;10.978;2023-06-22T07:14:31;28.00;98.00
26575;DHT22;67165;50.256;10.978;2023-06-22T07:16:57;27.70;98.00
26575;DHT22;67165;50.256;10.978;2023-06-22T07:19:27;27.80;98.00
26575;DHT22;67165;50.256;10.978;2023-06-22T07:21:54;28.10;98.00
26575;DHT22;67165;50.256;10.978;2023-06-22T07:24:24;28.50;98.00
26575;DHT22;67165;50.256;10.978;2023-06-22T07:26:50;28.50;98.00
26575;DHT22;67165;50.256;10.978;2023-06-22T07:29:20;28.50;98.00
26575;DHT22;67165;50.256;10.978;2023-06-22T07:31:47;28.50;98.00
26575;DHT22;67165;50.256;10.978;2023-06-22T07:34:13;28.50;98.00
26575;DHT22;67165;50.256;10.978;2023-06-22T07:36:39;28.20;98.00
26575;DHT22;67165;50.256;10.978;2023-06-22T07:39:04;28.40;98.00
26575;DHT22;67165;50.256;10.978;2023-06-22T07:41:31;28.70;98.00
26575;DHT22;67165;50.256;10.978;2023-06-22T07:43:56;28.70;98.00
26575;DHT22;67165;50.256;10.978;2023-06-22T07:46:23;28.80;98.00
26575;DHT22;67165;50.256;10.978;2023-06-22T07:48:48;28.80;98.00
26575;DHT22;67165;50.256;10.978;2023-06-22T07:51:14;29.30;98.00
26575;DHT22;67165;50.256;10.978;2023-06-22T07:53:41;29.50;98.00
26575;DHT22;67165;50.256;10.978;2023-06-22T07:56:07;29.40;98.00
26575;DHT22;67165;50.256;10.978;2023-06-22T07:58:35;29.40;98.00
26575;DHT22;67165;50.256;10.978;2023-06-22T08:01:01;29.50;98.00
26575;DHT22;67165;50.256;10.978;2023-06-22T08:03:26;30.00;98.00
26575;DHT22;67165;50.256;10.978;2023-06-22T08:05:52;30.20;98.00
26575;DHT22;67165;50.256;10.978;2023-06-22T08:08:18;29.70;98.00
26575;DHT22;67165;50.256;10.978;2023-06-22T08:10:43;29.80;98.00
26575;DHT22;67165;50.256;10.978;2023-06-22T08:13:10;29.90;98.00
26575;DHT22;67165;50.256;10.978;2023-06-22T08:15:36;30.30;98.00
26575;DHT22;67165;50.256;10.978;2023-06-22T08:18:01;30.10;98.00
26575;DHT22;67165;50.256;10.978;2023-06-22T08:20:27;30.20;98.00
26575;DHT22;67165;50.256;10.978;2023-06-22T08:22:55;30.10;98.00
26575;DHT22;67165;50.256;10.978;2023-06-22T08:25:21;30.10;98.00
26575;DHT22;67165;50.256;10.978;2023-06-22T08:27:47;30.40;98.00
26575;DHT22;67165;50.256;10.978;2023-06-22T08:30:14;30.60;98.00
26575;DHT22;67165;50.256;10.978;2023-06-22T08:32:40;30.30;98.00
26575;DHT22;67165;50.256;10.978;2023-06-22T08:35:06;30.40;98.00
26575;DHT22;67165;50.256;10.978;2023-06-22T08:37:33;30.90;98.00
26575;DHT22;67165;50.256;10.978;2023-06-22T08:40:03;31.20;98.00
26575;DHT22;67165;50.256;10.978;2023-06-22T08:42:33;30.50;98.00
26575;DHT22;67165;50.256;10.978;2023-06-22T08:44:59;30.70;98.00
26575;DHT22;67165;50.256;10.978;2023-06-22T08:47:27;30.60;98.00
26575;DHT22;67165;50.256;10.978;2023-06-22T08:49:52;30.50;98.00
26575;DHT22;67165;50.256;10.978;2023-06-22T08:52:18;30.60;98.00
26575;DHT22;67165;50.256;10.978;2023-06-22T08:54:48;30.50;98.00
26575;DHT22;67165;50.256;10.978;2023-06-22T08:57:14;30.80;98.00
26575;DHT22;67165;50.256;10.978;2023-06-22T08:59:40;30.90;98.00
26575;DHT22;67165;50.256;10.978;2023-06-22T09:02:06;30.80;98.00
26575;DHT22;67165;50.256;10.978;2023-06-22T09:04:31;30.90;98.00
26575;DHT22;67165;50.256;10.978;2023-06-22T09:07:03;31.30;98.00
26575;DHT22;67165;50.256;10.978;2023-06-22T09:09:29;31.20;98.00
26575;DHT22;67165;50.256;10.978;2023-06-22T09:11:54;30.90;98.00
26575;DHT22;67165;50.256;10.978;2023-06-22T09:14:20;30.80;98.00
26575;DHT22;67165;50.256;10.978;2023-06-22T09:16:45;31.10;97.40
26575;DHT22;67165;50.256;10.978;2023-06-22T09:19:11;30.80;97.80
26575;DHT22;67165;50.256;10.978;2023-06-22T09:21:37;30.90;98.00
26575;DHT22;67165;50.256;10.978;2023-06-22T09:24:03;31.00;98.00
26575;DHT22;67165;50.256;10.978;2023-06-22T09:26:29;30.50;98.00
26575;DHT22;67165;50.256;10.978;2023-06-22T09:28:55;30.50;98.00
26575;DHT22;67165;50.256;10.978;2023-06-22T09:31:20;30.60;98.00
26575;DHT22;67165;50.256;10.978;2023-06-22T09:33:55;30.80;98.00
26575;DHT22;67165;50.256;10.978;2023-06-22T09:36:21;30.70;98.00
26575;DHT22;67165;50.256;10.978;2023-06-22T09:38:48;30.80;98.00
26575;DHT22;67165;50.256;10.978;2023-06-22T09:41:14;30.60;98.00
26575;DHT22;67165;50.256;10.978;2023-06-22T09:43:40;30.50;98.00
26575;DHT22;67165;50.256;10.978;2023-06-22T09:46:05;30.80;98.00
26575;DHT22;67165;50.256;10.978;2023-06-22T09:48:32;30.80;98.00
26575;DHT22;67165;50.256;10.978;2023-06-22T09:50:58;30.60;98.00
26575;DHT22;67165;50.256;10.978;2023-06-22T09:53:23;30.50;98.00
26575;DHT22;67165;50.256;10.978;2023-06-22T09:55:49;30.60;98.00
26575;DHT22;67165;50.256;10.978;2023-06-22T09:58:15;30.70;98.00
26575;DHT22;67165;50.256;10.978;2023-06-22T10:00:40;30.60;97.80
26575;DHT22;67165;50.256;10.978;2023-06-22T10:03:07;30.60;98.00
26575;DHT22;67165;50.256;10.978;2023-06-22T10:05:32;30.70;98.00
26575;DHT22;67165;50.256;10.978;2023-06-22T10:07:58;30.90;98.00
26575;DHT22;67165;50.256;10.978;2023-06-22T10:10:24;30.50;97.50
26575;DHT22;67165;50.256;10.978;2023-06-22T10:12:57;30.70;98.00
26575;DHT22;67165;50.256;10.978;2023-06-22T10:15:23;30.60;98.00
26575;DHT22;67165;50.256;10.978;2023-06-22T10:17:49;30.70;97.90
26575;DHT22;67165;50.256;10.978;2023-06-22T10:20:15;30.90;97.80
26575;DHT22;67165;50.256;10.978;2023-06-22T10:22:44;30.90;98.00
26575;DHT22;67165;50.256;10.978;2023-06-22T10:25:11;31.00;98.00
26575;DHT22;67165;50.256;10.978;2023-06-22T10:27:37;31.30;96.40
26575;DHT22;67165;50.256;10.978;2023-06-22T10:30:06;31.40;97.60
26575;DHT22;67165;50.256;10.978;2023-06-22T10:32:32;31.20;97.80
26575;DHT22;67165;50.256;10.978;2023-06-22T10:34:58;31.30;96.60
26575;DHT22;67165;50.256;10.978;2023-06-22T10:37:24;31.30;95.90
26575;DHT22;67165;50.256;10.978;2023-06-22T10:39:50;31.20;96.60
26575;DHT22;67165;50.256;10.978;2023-06-22T10:42:15;31.20;97.30
26575;DHT22;67165;50.256;10.978;2023-06-22T10:44:41;31.30;96.70
26575;DHT22;67165;50.256;10.978;2023-06-22T10:47:09;31.50;97.30
26575;DHT22;67165;50.256;10.978;2023-06-22T10:49:37;31.70;95.40
26575;DHT22;67165;50.256;10.978;2023-06-22T10:52:03;32.00;97.60
26575;DHT22;67165;50.256;10.978;2023-06-22T10:54:29;32.30;94.10
26575;DHT22;67165;50.256;10.978;2023-06-22T10:56:54;32.40;94.50
26575;DHT22;67165;50.256;10.978;2023-06-22T10:59:20;32.30;93.20
26575;DHT22;67165;50.256;10.978;2023-06-22T11:01:46;32.30;97.20
26575;DHT22;67165;50.256;10.978;2023-06-22T11:04:12;32.20;94.60
26575;DHT22;67165;50.256;10.978;2023-06-22T11:06:38;32.10;93.10
26575;DHT22;67165;50.256;10.978;2023-06-22T11:09:03;32.00;92.80
26575;DHT22;67165;50.256;10.978;2023-06-22T11:11:29;31.80;94.60
26575;DHT22;67165;50.256;10.978;2023-06-22T11:13:55;31.90;93.00
26575;DHT22;67165;50.256;10.978;2023-06-22T11:16:21;32.00;96.10
26575;DHT22;67165;50.256;10.978;2023-06-22T11:18:46;31.80;93.00
26575;DHT22;67165;50.256;10.978;2023-06-22T11:21:12;31.80;93.40
26575;DHT22;67165;50.256;10.978;2023-06-22T11:23:37;31.70;92.50
26575;DHT22;67165;50.256;10.978;2023-06-22T11:26:03;31.60;92.30
26575;DHT22;67165;50.256;10.978;2023-06-22T11:28:29;31.80;93.40
26575;DHT22;67165;50.256;10.978;2023-06-22T11:30:54;31.70;93.70
26575;DHT22;67165;50.256;10.978;2023-06-22T11:33:20;31.90;93.20
26575;DHT22;67165;50.256;10.978;2023-06-22T11:35:46;31.80;93.10
26575;DHT22;67165;50.256;10.978;2023-06-22T11:38:11;31.60;93.20
26575;DHT22;67165;50.256;10.978;2023-06-22T11:40:37;31.60;95.10
26575;DHT22;67165;50.256;10.978;2023-06-22T11:43:02;31.60;92.30
26575;DHT22;67165;50.256;10.978;2023-06-22T11:45:28;31.50;92.60
26575;DHT22;67165;50.256;10.978;2023-06-22T11:47:54;31.50;93.40
26575;DHT22;67165;50.256;10.978;2023-06-22T11:50:19;31.40;93.90
26575;DHT22;67165;50.256;10.978;2023-06-22T11:52:45;31.30;95.10
26575;DHT22;67165;50.256;10.978;2023-06-22T11:55:11;31.40;94.50
26575;DHT22;67165;50.256;10.978;2023-06-22T11:57:38;31.70;95.20
26575;DHT22;67165;50.256;10.978;2023-06-22T12:00:05;31.80;92.20
26575;DHT22;67165;50.256;10.978;2023-06-22T12:02:46;32.20;92.90
26575;DHT22;67165;50.256;10.978;2023-06-22T12:05:11;32.30;91.50
26575;DHT22;67165;50.256;10.978;2023-06-22T12:07:37;32.60;91.10
26575;DHT22;67165;50.256;10.978;2023-06-22T12:10:03;32.40;89.50
26575;DHT22;67165;50.256;10.978;2023-06-22T12:12:29;32.40;90.20
26575;DHT22;67165;50.256;10.978;2023-06-22T12:14:55;32.30;92.20
26575;DHT22;67165;50.256;10.978;2023-06-22T12:17:20;32.50;91.10
26575;DHT22;67165;50.256;10.978;2023-06-22T12:19:46;32.40;89.40
26575;DHT22;67165;50.256;10.978;2023-06-22T12:22:12;32.20;90.80
26575;DHT22;67165;50.256;10.978;2023-06-22T12:24:37;32.10;92.40
26575;DHT22;67165;50.256;10.978;2023-06-22T12:27:03;32.10;91.90
26575;DHT22;67165;50.256;10.978;2023-06-22T12:29:29;32.50;92.00
26575;DHT22;67165;50.256;10.978;2023-06-22T12:31:55;32.70;91.10
26575;DHT22;67165;50.256;10.978;2023-06-22T12:34:21;32.80;89.60
26575;DHT22;67165;50.256;10.978;2023-06-22T12:36:46;32.80;88.20
26575;DHT22;67165;50.256;10.978;2023-06-22T12:39:15;32.80;87.90
26575;DHT22;67165;50.256;10.978;2023-06-22T12:41:40;33.00;89.00
26575;DHT22;67165;50.256;10.978;2023-06-22T12:44:06;33.10;89.10
26575;DHT22;67165;50.256;10.978;2023-06-22T12:46:32;32.60;91.40
26575;DHT22;67165;50.256;10.978;2023-06-22T12:49:03;32.30;90.70
26575;DHT22;67165;50.256;10.978;2023-06-22T12:51:29;32.30;90.70
26575;DHT22;67165;50.256;10.978;2023-06-22T12:53:55;32.30;89.60
26575;DHT22;67165;50.256;10.978;2023-06-22T12:56:21;32.20;90.80
26575;DHT22;67165;50.256;10.978;2023-06-22T12:58:47;32.10;90.90
26575;DHT22;67165;50.256;10.978;2023-06-22T13:01:12;32.10;90.60
26575;DHT22;67165;50.256;10.978;2023-06-22T13:03:38;32.00;90.50
26575;DHT22;67165;50.256;10.978;2023-06-22T13:06:03;32.20;90.20
26575;DHT22;67165;50.256;10.978;2023-06-22T13:08:30;32.30;92.90
26575;DHT22;67165;50.256;10.978;2023-06-22T13:10:55;32.20;93.70
26575;DHT22;67165;50.256;10.978;2023-06-22T13:13:24;32.50;90.80
26575;DHT22;67165;50.256;10.978;2023-06-22T13:15:51;32.90;90.20
26575;DHT22;67165;50.256;10.978;2023-06-22T13:18:18;33.20;89.60
26575;DHT22;67165;50.256;10.978;2023-06-22T13:20:43;33.30;89.10
26575;DHT22;67165;50.256;10.978;2023-06-22T13:23:11;33.50;88.70
26575;DHT22;67165;50.256;10.978;2023-06-22T13:25:37;33.50;87.80
26575;DHT22;67165;50.256;10.978;2023-06-22T13:28:03;33.40;86.80
26575;DHT22;67165;50.256;10.978;2023-06-22T13:30:28;33.50;86.80
26575;DHT22;67165;50.256;10.978;2023-06-22T13:32:55;33.40;87.10
26575;DHT22;67165;50.256;10.978;2023-06-22T13:35:21;33.30;88.00
26575;DHT22;67165;50.256;10.978;2023-06-22T13:37:46;33.20;87.20
26575;DHT22;67165;50.256;10.978;2023-06-22T13:40:12;32.90;85.60
26575;DHT22;67165;50.256;10.978;2023-06-22T13:42:38;32.60;86.70
26575;DHT22;67165;50.256;10.978;2023-06-22T13:45:04;32.50;86.60
26575;DHT22;67165;50.256;10.978;2023-06-22T13:47:30;32.50;87.00
26575;DHT22;67165;50.256;10.978;2023-06-22T13:49:56;32.40;87.10
26575;DHT22;67165;50.256;10.978;2023-06-22T13:52:23;32.60;87.30
26575;DHT22;67165;50.256;10.978;2023-06-22T13:54:49;32.50;87.80
26575;DHT22;67165;50.256;10.978;2023-06-22T13:57:14;32.50;88.10
26575;DHT22;67165;50.256;10.978;2023-06-22T13:59:40;32.50;87.90
26575;DHT22;67165;50.256;10.978;2023-06-22T14:02:06;32.50;88.20
26575;DHT22;67165;50.256;10.978;2023-06-22T14:04:32;32.70;88.30
26575;DHT22;67165;50.256;10.978;2023-06-22T14:06:57;32.70;88.80
26575;DHT22;67165;50.256;10.978;2023-06-22T14:09:23;32.80;90.30
26575;DHT22;67165;50.256;10.978;2023-06-22T14:11:49;33.00;93.10
26575;DHT22;67165;50.256;10.978;2023-06-22T14:14:14;32.90;88.90
26575;DHT22;67165;50.256;10.978;2023-06-22T14:16:40;32.90;88.30
26575;DHT22;67165;50.256;10.978;2023-06-22T14:19:06;32.80;90.70
26575;DHT22;67165;50.256;10.978;2023-06-22T14:21:31;32.70;89.80
26575;DHT22;67165;50.256;10.978;2023-06-22T14:23:57;32.70;90.40
26575;DHT22;67165;50.256;10.978;2023-06-22T14:26:22;32.80;90.50
26575;DHT22;67165;50.256;10.978;2023-06-22T14:28:49;32.90;91.60
26575;DHT22;67165;50.256;10.978;2023-06-22T14:31:17;33.00;89.10
26575;DHT22;67165;50.256;10.978;2023-06-22T14:33:49;33.10;87.50
26575;DHT22;67165;50.256;10.978;2023-06-22T14:36:15;33.10;89.50
26575;DHT22;67165;50.256;10.978;2023-06-22T14:38:41;33.20;88.70
26575;DHT22;67165;50.256;10.978;2023-06-22T14:41:07;33.30;89.30
26575;DHT22;67165;50.256;10.978;2023-06-22T14:43:32;33.20;89.50
26575;DHT22;67165;50.256;10.978;2023-06-22T14:45:58;33.20;91.00
26575;DHT22;67165;50.256;10.978;2023-06-22T14:48:23;33.00;92.30
26575;DHT22;67165;50.256;10.978;2023-06-22T14:50:49;32.90;90.70
26575;DHT22;67165;50.256;10.978;2023-06-22T14:53:15;32.90;90.00
26575;DHT22;67165;50.256;10.978;2023-06-22T14:55:40;32.90;90.00
26575;DHT22;67165;50.256;10.978;2023-06-22T14:58:06;33.00;87.50
26575;DHT22;67165;50.256;10.978;2023-06-22T15:00:36;33.00;88.90
26575;DHT22;67165;50.256;10.978;2023-06-22T15:03:01;32.90;88.80
26575;DHT22;67165;50.256;10.978;2023-06-22T15:05:28;32.80;88.00
26575;DHT22;67165;50.256;10.978;2023-06-22T15:07:53;32.80;92.20
26575;DHT22;67165;50.256;10.978;2023-06-22T15:10:19;32.90;88.10
26575;DHT22;67165;50.256;10.978;2023-06-22T15:12:44;33.00;88.40
26575;DHT22;67165;50.256;10.978;2023-06-22T15:15:10;33.10;88.00
26575;DHT22;67165;50.256;10.978;2023-06-22T15:17:36;33.30;88.40
26575;DHT22;67165;50.256;10.978;2023-06-22T15:20:02;33.10;88.10
26575;DHT22;67165;50.256;10.978;2023-06-22T15:22:30;32.90;86.90
26575;DHT22;67165;50.256;10.978;2023-06-22T15:24:56;32.80;87.80